Time;durP1;ratioP1;P1;durP2;ratioP2;P2;SDS_P1;SDS_P2;PMS_P1;PMS_P2;Temp;Humidity;BMP_temperature;BMP_pressure;BME280_temperature;BME280_humidity;BME280_pressure;Samples;Min_cycle;Max_cycle;Signal;HPM_P1;HPM_P2
2023/12/23 00:01:58;;;;;;;5.10;1.50;;;;;;;;;;82100;275;3027945;-32
2023/12/23 00:04:36;;;;;;;5.90;1.30;;;;;;;;;;83419;279;3031213;-33
2023/12/23 00:07:14;;;;;;;5.30;1.40;;;;;;;;;;82771;275;3032683;-31
2023/12/23 00:09:52;;;;;;;5.10;1.30;;;;;;;;;;82090;276;3028231;-32
2023/12/23 00:12:31;;;;;;;3.70;1.20;;;;;;;;;;82089;275;3028041;-33
2023/12/23 00:15:09;;;;;;;4.90;1.30;;;;;;;;;;83456;275;3031327;-33
2023/12/23 00:17:48;;;;;;;4.90;1.40;;;;;;;;;;82459;276;3031435;-33
2023/12/23 00:20:28;;;;;;;4.30;1.30;;;;;;;;;;82097;275;3028519;-32
2023/12/23 00:23:05;;;;;;;4.20;1.10;;;;;;;;;;82070;276;3027866;-32
2023/12/23 00:25:44;;;;;;;4.90;1.30;;;;;;;;;;82028;276;3030935;-32
2023/12/23 00:28:22;;;;;;;4.00;1.20;;;;;;;;;;82058;275;3031607;-32
2023/12/23 00:30:58;;;;;;;4.80;1.10;;;;;;;;;;83448;279;3029519;-32
2023/12/23 00:33:35;;;;;;;4.50;1.30;;;;;;;;;;83440;279;3027287;-33
2023/12/23 00:36:11;;;;;;;4.60;1.20;;;;;;;;;;83445;279;3032090;-33
2023/12/23 00:38:49;;;;;;;4.60;1.30;;;;;;;;;;82079;275;3031198;-33
2023/12/23 00:41:32;;;;;;;4.60;1.30;;;;;;;;;;82043;279;3028785;-33
2023/12/23 00:44:08;;;;;;;4.20;1.20;;;;;;;;;;83451;279;3027545;-30
2023/12/23 00:46:45;;;;;;;3.20;1.00;;;;;;;;;;83436;279;3030491;-31
2023/12/23 00:49:21;;;;;;;4.80;1.10;;;;;;;;;;83468;279;3031322;-31
2023/12/23 00:51:59;;;;;;;4.30;1.20;;;;;;;;;;83448;279;3028722;-30
2023/12/23 00:54:35;;;;;;;4.90;1.40;;;;;;;;;;83439;279;3028298;-32
2023/12/23 00:57:11;;;;;;;3.80;1.10;;;;;;;;;;83430;279;3036755;-31
2023/12/23 00:59:47;;;;;;;4.60;1.30;;;;;;;;;;83444;279;3032007;-30
2023/12/23 01:02:23;;;;;;;4.40;1.30;;;;;;;;;;83460;279;3028813;-31
2023/12/23 01:04:59;;;;;;;4.20;1.10;;;;;;;;;;82813;279;3027584;-33
2023/12/23 01:36:12;;;;;;;3.50;1.00;;;;;;;;;;81789;303;3011900;-31
2023/12/23 01:38:53;;;;;;;4.10;1.20;;;;;;;;;;80589;285;3028342;-31
2023/12/23 01:41:32;;;;;;;4.00;1.10;;;;;;;;;;80591;285;3027648;-31
2023/12/23 01:44:12;;;;;;;4.00;1.00;;;;;;;;;;80568;289;3030559;-31
2023/12/23 01:46:53;;;;;;;3.00;1.00;;;;;;;;;;80690;296;3031699;-30
2023/12/23 01:55:03;;;;;;;3.50;1.10;;;;;;;;;;83983;266;3013074;-33
2023/12/23 02:05:45;;;;;;;3.20;1.00;;;;;;;;;;83822;268;3244382;-32
2023/12/23 02:08:23;;;;;;;3.50;1.00;;;;;;;;;;82539;250;3029453;-32
2023/12/23 02:11:06;;;;;;;3.70;1.10;;;;;;;;;;82541;257;3027911;-32
2023/12/23 02:14:01;;;;;;;4.10;1.10;;;;;;;;;;82639;247;3031495;-32
2023/12/23 02:19:23;;;;;;;4.00;1.10;;;;;;;;;;83710;276;3011289;-32
2023/12/23 02:21:59;;;;;;;3.40;1.30;;;;;;;;;;82553;251;3028613;-33
2023/12/23 02:24:39;;;;;;;4.40;1.20;;;;;;;;;;82534;243;3027588;-32
2023/12/23 02:27:27;;;;;;;3.60;1.00;;;;;;;;;;82547;259;3031277;-33
2023/12/23 02:30:11;;;;;;;4.20;1.00;;;;;;;;;;82508;247;3032126;-31
2023/12/23 02:32:47;;;;;;;3.60;1.00;;;;;;;;;;82869;253;3028688;-32
2023/12/23 02:35:26;;;;;;;3.40;1.00;;;;;;;;;;83613;255;3027288;-32
2023/12/23 02:38:03;;;;;;;3.90;1.20;;;;;;;;;;82651;254;3031516;-33
2023/12/23 02:40:43;;;;;;;3.70;1.10;;;;;;;;;;82662;242;3038045;-33
2023/12/23 02:43:24;;;;;;;3.40;0.90;;;;;;;;;;82670;254;3028956;-34
2023/12/23 02:46:02;;;;;;;3.90;0.90;;;;;;;;;;82624;254;3027141;-34
2023/12/23 02:48:40;;;;;;;3.90;0.90;;;;;;;;;;83149;242;3031031;-34
2023/12/23 02:51:20;;;;;;;3.80;1.10;;;;;;;;;;83137;246;3031641;-36
2023/12/23 02:53:56;;;;;;;3.20;0.90;;;;;;;;;;83674;241;3028421;-34
2023/12/23 02:56:35;;;;;;;3.40;0.90;;;;;;;;;;83638;242;3027766;-34
2023/12/23 02:59:15;;;;;;;3.50;1.00;;;;;;;;;;83641;237;3030719;-34
2023/12/23 03:01:56;;;;;;;2.60;0.80;;;;;;;;;;83672;242;3031704;-35
2023/12/23 03:04:33;;;;;;;3.20;0.90;;;;;;;;;;83701;241;3028633;-35
2023/12/23 03:07:11;;;;;;;3.20;0.90;;;;;;;;;;83705;241;3027292;-35
2023/12/23 03:09:48;;;;;;;3.00;0.80;;;;;;;;;;83701;245;3031277;-35
2023/12/23 03:12:25;;;;;;;3.50;0.90;;;;;;;;;;83647;241;3031297;-35
2023/12/23 03:15:02;;;;;;;2.60;0.90;;;;;;;;;;83704;241;3028033;-35
2023/12/23 03:17:38;;;;;;;3.60;0.90;;;;;;;;;;85015;237;3027174;-35
2023/12/23 03:20:15;;;;;;;3.40;1.00;;;;;;;;;;84249;237;3030856;-35
2023/12/23 03:22:52;;;;;;;2.90;0.80;;;;;;;;;;84941;245;3031617;-34
2023/12/23 03:25:29;;;;;;;3.40;1.00;;;;;;;;;;84911;241;3028032;-34
2023/12/23 03:28:09;;;;;;;3.40;0.80;;;;;;;;;;83676;241;3027639;-33
2023/12/23 03:30:45;;;;;;;3.20;0.80;;;;;;;;;;84325;237;3030875;-33
2023/12/23 03:33:22;;;;;;;3.40;0.80;;;;;;;;;;83646;238;3031253;-33
2023/12/23 03:36:02;;;;;;;3.10;0.90;;;;;;;;;;83698;237;3029063;-34
2023/12/23 03:38:39;;;;;;;4.00;0.80;;;;;;;;;;83701;245;3027823;-34
2023/12/23 03:41:16;;;;;;;2.90;1.00;;;;;;;;;;83661;241;3030957;-33
2023/12/23 03:43:52;;;;;;;3.60;0.80;;;;;;;;;;83691;245;3031495;-33
2023/12/23 03:46:32;;;;;;;3.20;1.10;;;;;;;;;;83713;237;3028545;-32
2023/12/23 03:49:08;;;;;;;3.70;0.80;;;;;;;;;;83683;245;3027655;-32
2023/12/23 03:51:45;;;;;;;3.60;1.00;;;;;;;;;;83667;241;3031212;-32
2023/12/23 03:54:22;;;;;;;3.20;1.00;;;;;;;;;;83645;241;3032192;-33
2023/12/23 03:57:00;;;;;;;3.20;0.70;;;;;;;;;;83684;237;3028804;-32
2023/12/23 03:59:42;;;;;;;3.20;0.90;;;;;;;;;;83682;237;3027451;-32
2023/12/23 04:02:18;;;;;;;2.90;0.80;;;;;;;;;;83672;237;3031261;-33
2023/12/23 04:04:55;;;;;;;3.30;0.90;;;;;;;;;;83710;245;3031606;-31
2023/12/23 04:07:32;;;;;;;3.60;1.00;;;;;;;;;;83735;237;3028644;-32
2023/12/23 04:10:11;;;;;;;3.50;0.80;;;;;;;;;;83738;241;3028055;-31
2023/12/23 04:12:48;;;;;;;3.20;0.80;;;;;;;;;;84843;245;3036773;-31
2023/12/23 04:15:25;;;;;;;3.10;0.90;;;;;;;;;;83707;245;3031872;-31
2023/12/23 04:18:01;;;;;;;3.60;1.00;;;;;;;;;;83723;245;3028352;-31
2023/12/23 04:20:41;;;;;;;3.30;0.80;;;;;;;;;;83694;241;3027987;-32
2023/12/23 04:23:18;;;;;;;2.90;0.80;;;;;;;;;;83711;245;3038092;-32
2023/12/23 04:25:59;;;;;;;3.10;0.90;;;;;;;;;;83732;245;3031571;-32
2023/12/23 04:28:35;;;;;;;3.70;1.00;;;;;;;;;;83730;242;3028468;-33
2023/12/23 04:31:11;;;;;;;4.50;1.00;;;;;;;;;;83707;241;3028035;-32
2023/12/23 04:33:50;;;;;;;5.20;1.00;;;;;;;;;;83757;237;3032299;-32
2023/12/23 04:36:26;;;;;;;3.70;0.80;;;;;;;;;;83765;245;3031810;-32
2023/12/23 04:39:04;;;;;;;5.00;0.80;;;;;;;;;;83734;245;3028356;-32
2023/12/23 04:41:46;;;;;;;2.90;0.80;;;;;;;;;;83712;241;3028211;-33
2023/12/23 04:44:23;;;;;;;3.30;0.80;;;;;;;;;;83776;234;3031439;-32
2023/12/23 04:46:58;;;;;;;4.30;0.90;;;;;;;;;;84475;245;3031909;-33
2023/12/23 04:49:34;;;;;;;2.70;0.80;;;;;;;;;;83709;245;3027918;-32
2023/12/23 04:52:11;;;;;;;3.30;0.80;;;;;;;;;;83748;241;3027295;-33
2023/12/23 04:54:47;;;;;;;2.70;0.60;;;;;;;;;;83759;237;3031414;-32
2023/12/23 04:57:23;;;;;;;2.90;0.80;;;;;;;;;;83724;234;3031800;-32
2023/12/23 04:59:59;;;;;;;3.60;0.80;;;;;;;;;;83768;237;3028327;-32
2023/12/23 05:02:36;;;;;;;3.30;0.90;;;;;;;;;;84179;234;3027626;-33
2023/12/23 05:05:12;;;;;;;2.60;0.70;;;;;;;;;;83735;237;3031491;-32
2023/12/23 05:07:48;;;;;;;2.60;0.80;;;;;;;;;;83777;245;3031301;-32
2023/12/23 05:10:26;;;;;;;3.00;0.80;;;;;;;;;;83743;245;3028944;-32
2023/12/23 05:13:04;;;;;;;3.20;0.60;;;;;;;;;;83755;241;3027628;-32
2023/12/23 05:15:40;;;;;;;3.10;0.80;;;;;;;;;;84963;245;3031338;-33
2023/12/23 05:18:15;;;;;;;2.90;0.70;;;;;;;;;;84145;241;3031968;-32
2023/12/23 05:20:52;;;;;;;3.40;0.80;;;;;;;;;;84268;241;3031655;-32
2023/12/23 05:23:35;;;;;;;2.90;0.60;;;;;;;;;;83703;241;3027625;-32
2023/12/23 05:26:17;;;;;;;3.70;0.60;;;;;;;;;;83716;241;3031581;-32
2023/12/23 05:28:58;;;;;;;2.80;0.60;;;;;;;;;;83708;241;3032354;-32
2023/12/23 05:31:36;;;;;;;2.70;0.70;;;;;;;;;;83711;241;3028224;-32
2023/12/23 05:34:14;;;;;;;3.40;0.80;;;;;;;;;;83691;245;3027574;-32
2023/12/23 05:36:50;;;;;;;2.90;0.70;;;;;;;;;;83723;241;3031423;-32
2023/12/23 05:39:25;;;;;;;3.40;0.80;;;;;;;;;;83734;237;3031671;-32
2023/12/23 05:42:02;;;;;;;3.00;0.80;;;;;;;;;;83727;245;3028319;-32
2023/12/23 05:44:39;;;;;;;3.60;0.80;;;;;;;;;;83694;234;3027610;-32
2023/12/23 05:47:17;;;;;;;2.80;0.70;;;;;;;;;;83703;241;3031196;-32
2023/12/23 05:49:53;;;;;;;2.40;0.80;;;;;;;;;;83733;229;3031730;-32
2023/12/23 05:52:30;;;;;;;2.70;0.70;;;;;;;;;;83658;237;3028527;-32
2023/12/23 05:55:09;;;;;;;3.10;0.80;;;;;;;;;;84914;237;3033300;-33
2023/12/23 05:57:45;;;;;;;2.40;0.70;;;;;;;;;;84702;241;3032118;-33
2023/12/23 06:00:24;;;;;;;3.10;0.80;;;;;;;;;;83691;241;3031401;-32
2023/12/23 06:03:01;;;;;;;2.70;0.70;;;;;;;;;;83827;242;3029238;-32
2023/12/23 06:05:40;;;;;;;3.40;0.70;;;;;;;;;;83696;241;3034345;-33
2023/12/23 06:08:17;;;;;;;3.20;0.70;;;;;;;;;;83688;245;3031187;-32
2023/12/23 06:10:54;;;;;;;2.70;0.60;;;;;;;;;;84195;245;3031590;-32
2023/12/23 06:13:34;;;;;;;2.30;0.60;;;;;;;;;;83686;238;3028354;-32
2023/12/23 06:16:12;;;;;;;3.00;0.60;;;;;;;;;;83770;237;3027473;-32
2023/12/23 06:18:48;;;;;;;3.30;0.60;;;;;;;;;;84704;241;3031327;-34
2023/12/23 06:21:27;;;;;;;3.30;0.70;;;;;;;;;;83761;245;3032150;-34
2023/12/23 06:24:05;;;;;;;2.10;0.50;;;;;;;;;;83718;237;3028878;-34
2023/12/23 06:26:42;;;;;;;2.50;0.70;;;;;;;;;;83801;245;3027471;-34
2023/12/23 06:29:22;;;;;;;3.00;0.80;;;;;;;;;;83724;237;3030670;-34
2023/12/23 06:32:01;;;;;;;2.30;0.80;;;;;;;;;;83820;241;3031510;-35
2023/12/23 06:34:37;;;;;;;2.50;0.50;;;;;;;;;;83851;237;3028624;-34
2023/12/23 06:37:13;;;;;;;2.60;0.80;;;;;;;;;;83777;242;3028533;-34
2023/12/23 06:39:49;;;;;;;2.30;0.70;;;;;;;;;;83766;234;3031657;-34
2023/12/23 06:42:25;;;;;;;2.60;0.60;;;;;;;;;;83773;245;3032250;-34
2023/12/23 06:45:01;;;;;;;2.20;0.50;;;;;;;;;;83794;234;3028114;-35
2023/12/23 06:47:38;;;;;;;3.10;0.80;;;;;;;;;;83781;241;3028328;-34
2023/12/23 06:50:14;;;;;;;2.00;0.60;;;;;;;;;;83777;242;3031819;-34
2023/12/23 06:52:51;;;;;;;3.00;0.70;;;;;;;;;;83772;237;3032330;-34
2023/12/23 06:55:28;;;;;;;2.80;0.60;;;;;;;;;;83696;237;3027882;-34
2023/12/23 06:58:11;;;;;;;2.20;0.60;;;;;;;;;;83742;241;3028016;-34
2023/12/23 07:00:48;;;;;;;2.20;0.60;;;;;;;;;;83708;242;3031598;-34
2023/12/23 07:03:27;;;;;;;2.50;0.60;;;;;;;;;;83728;245;3031340;-35
2023/12/23 07:06:09;;;;;;;2.10;0.50;;;;;;;;;;83727;237;3028959;-34
2023/12/23 07:08:47;;;;;;;2.60;0.70;;;;;;;;;;83748;242;3027765;-34
2023/12/23 07:11:23;;;;;;;2.20;0.50;;;;;;;;;;83724;241;3030886;-35
2023/12/23 07:14:00;;;;;;;2.50;0.70;;;;;;;;;;83773;245;3032257;-34
2023/12/23 07:16:42;;;;;;;2.20;0.60;;;;;;;;;;83707;241;3028532;-34
2023/12/23 07:19:20;;;;;;;2.50;0.60;;;;;;;;;;83760;241;3027472;-34
2023/12/23 07:21:57;;;;;;;2.50;0.60;;;;;;;;;;83779;242;3030620;-35
2023/12/23 07:24:34;;;;;;;3.00;0.60;;;;;;;;;;83805;229;3031354;-34
2023/12/23 07:27:11;;;;;;;2.50;0.50;;;;;;;;;;84001;241;3033864;-36
2023/12/23 07:29:49;;;;;;;3.40;0.70;;;;;;;;;;83811;237;3030026;-34
2023/12/23 07:32:30;;;;;;;2.90;0.60;;;;;;;;;;83753;237;3030662;-34
2023/12/23 07:35:08;;;;;;;2.60;0.60;;;;;;;;;;83735;241;3031902;-34
2023/12/23 07:37:46;;;;;;;2.50;0.60;;;;;;;;;;83743;237;3034644;-34
2023/12/23 07:40:23;;;;;;;2.50;0.50;;;;;;;;;;83745;241;3027224;-34
2023/12/23 07:43:05;;;;;;;2.70;0.70;;;;;;;;;;83771;237;3030550;-34
2023/12/23 07:45:47;;;;;;;2.80;0.50;;;;;;;;;;83720;245;3032271;-34
2023/12/23 07:48:26;;;;;;;3.00;0.70;;;;;;;;;;83811;237;3028727;-34
2023/12/23 07:51:11;;;;;;;3.00;0.70;;;;;;;;;;83719;245;3029271;-34
2023/12/23 07:53:47;;;;;;;2.60;0.80;;;;;;;;;;83861;245;3031297;-34
2023/12/23 07:56:27;;;;;;;2.90;0.70;;;;;;;;;;83715;241;3031502;-34
2023/12/23 07:59:05;;;;;;;2.70;0.70;;;;;;;;;;83707;237;3028527;-34
2023/12/23 08:01:48;;;;;;;4.00;0.80;;;;;;;;;;83839;245;3027599;-34
2023/12/23 08:04:26;;;;;;;3.40;0.70;;;;;;;;;;83722;245;3031638;-34
2023/12/23 08:07:07;;;;;;;3.30;0.70;;;;;;;;;;83684;229;3031897;-34
2023/12/23 08:09:47;;;;;;;3.60;0.70;;;;;;;;;;83699;237;3028342;-34
2023/12/23 08:12:29;;;;;;;3.70;0.80;;;;;;;;;;83736;241;3028223;-35
2023/12/23 08:15:07;;;;;;;3.30;0.80;;;;;;;;;;83768;237;3031113;-34
2023/12/23 08:17:44;;;;;;;3.80;1.00;;;;;;;;;;83815;241;3032782;-34
2023/12/23 08:20:21;;;;;;;3.40;0.90;;;;;;;;;;83794;237;3029019;-34
2023/12/23 08:23:00;;;;;;;4.60;0.90;;;;;;;;;;83874;241;3030893;-36
2023/12/23 08:25:39;;;;;;;3.70;0.80;;;;;;;;;;83710;241;3032388;-37
2023/12/23 08:28:18;;;;;;;4.20;0.70;;;;;;;;;;83686;241;3032153;-37
2023/12/23 08:30:54;;;;;;;4.40;0.80;;;;;;;;;;83697;241;3028055;-42
2023/12/23 08:33:31;;;;;;;3.80;0.80;;;;;;;;;;83700;241;3028033;-39
2023/12/23 08:36:10;;;;;;;4.60;1.00;;;;;;;;;;83726;237;3031481;-38
2023/12/23 08:38:48;;;;;;;4.60;0.90;;;;;;;;;;84948;241;3031625;-37
2023/12/23 08:41:24;;;;;;;4.30;1.00;;;;;;;;;;84955;241;3029124;-36
2023/12/23 08:44:00;;;;;;;3.50;0.90;;;;;;;;;;85009;245;3027309;-38
2023/12/23 08:46:37;;;;;;;3.80;0.90;;;;;;;;;;85002;237;3030802;-40
2023/12/23 08:49:14;;;;;;;3.90;1.00;;;;;;;;;;84159;241;3031961;-40
2023/12/23 08:51:55;;;;;;;3.70;0.90;;;;;;;;;;83737;237;3029022;-38
2023/12/23 08:54:33;;;;;;;3.30;0.80;;;;;;;;;;83723;241;3027273;-37
2023/12/23 08:57:13;;;;;;;4.00;1.00;;;;;;;;;;83682;241;3031317;-40
2023/12/23 08:59:52;;;;;;;4.60;1.10;;;;;;;;;;83715;241;3032413;-38
2023/12/23 09:02:31;;;;;;;4.20;1.00;;;;;;;;;;83693;237;3028225;-38
2023/12/23 09:05:10;;;;;;;4.20;1.10;;;;;;;;;;83736;229;3028242;-38
2023/12/23 09:07:46;;;;;;;3.80;0.80;;;;;;;;;;84501;245;3030664;-40
2023/12/23 09:10:23;;;;;;;3.50;0.90;;;;;;;;;;83729;241;3031335;-39
2023/12/23 09:12:59;;;;;;;4.70;0.90;;;;;;;;;;83756;245;3027918;-38
2023/12/23 09:15:41;;;;;;;5.20;1.30;;;;;;;;;;83725;230;3027230;-38
2023/12/23 09:18:21;;;;;;;4.00;0.90;;;;;;;;;;83703;237;3031721;-38
2023/12/23 09:21:00;;;;;;;4.00;1.00;;;;;;;;;;83712;245;3030802;-39
2023/12/23 09:23:37;;;;;;;4.10;1.10;;;;;;;;;;83694;237;3028166;-39
2023/12/23 09:26:18;;;;;;;4.30;1.20;;;;;;;;;;83936;229;3027546;-38
2023/12/23 09:28:56;;;;;;;3.60;1.10;;;;;;;;;;83664;237;3030752;-38
2023/12/23 09:31:39;;;;;;;4.30;1.00;;;;;;;;;;83683;241;3033917;-39
2023/12/23 09:34:16;;;;;;;4.30;1.10;;;;;;;;;;83685;237;3028690;-38
2023/12/23 09:36:52;;;;;;;4.20;1.10;;;;;;;;;;85037;237;3027837;-39
2023/12/23 09:39:28;;;;;;;3.80;0.90;;;;;;;;;;84966;241;3031123;-39
2023/12/23 09:42:06;;;;;;;4.10;1.00;;;;;;;;;;84791;245;3031925;-39
2023/12/23 09:44:44;;;;;;;4.00;1.10;;;;;;;;;;83706;237;3027970;-39
2023/12/23 09:47:20;;;;;;;4.40;1.10;;;;;;;;;;85034;245;3027598;-39
2023/12/23 09:49:57;;;;;;;3.00;1.00;;;;;;;;;;84933;245;3030859;-45
2023/12/23 09:52:33;;;;;;;3.30;1.00;;;;;;;;;;84041;237;3031947;-43
2023/12/23 09:55:13;;;;;;;3.90;1.00;;;;;;;;;;83725;241;3028652;-43
2023/12/23 09:57:49;;;;;;;4.30;1.00;;;;;;;;;;84936;245;3027282;-43
2023/12/23 10:00:26;;;;;;;4.30;1.10;;;;;;;;;;84957;245;3029805;-42
2023/12/23 10:03:02;;;;;;;4.30;1.20;;;;;;;;;;84978;237;3031555;-42
2023/12/23 10:05:44;;;;;;;3.40;1.00;;;;;;;;;;84968;245;3028855;-44
2023/12/23 10:08:21;;;;;;;4.60;1.30;;;;;;;;;;85034;237;3027561;-43
2023/12/23 10:10:57;;;;;;;6.20;1.10;;;;;;;;;;84937;245;3037319;-42
2023/12/23 10:13:33;;;;;;;3.90;1.10;;;;;;;;;;84903;241;3031588;-42
2023/12/23 10:16:11;;;;;;;3.60;1.00;;;;;;;;;;84956;245;3028657;-43
2023/12/23 10:18:49;;;;;;;4.80;1.00;;;;;;;;;;84245;238;3028388;-42
2023/12/23 10:21:32;;;;;;;3.80;1.10;;;;;;;;;;83722;234;3031084;-45
2023/12/23 10:24:09;;;;;;;4.00;1.00;;;;;;;;;;83715;237;3031967;-42
2023/12/23 10:26:47;;;;;;;3.90;1.10;;;;;;;;;;85005;237;3027862;-43
2023/12/23 10:29:26;;;;;;;4.70;1.00;;;;;;;;;;84986;237;3027568;-43
2023/12/23 10:32:07;;;;;;;4.20;1.00;;;;;;;;;;84879;245;3116633;-43
2023/12/23 10:34:46;;;;;;;4.10;1.10;;;;;;;;;;84970;241;3032233;-42
2023/12/23 10:37:25;;;;;;;3.20;0.90;;;;;;;;;;85008;234;3029306;-42
2023/12/23 10:40:21;;;;;;;4.00;0.90;;;;;;;;;;84949;241;3027396;-43
2023/12/23 10:43:01;;;;;;;4.50;1.00;;;;;;;;;;84975;245;3030707;-43
2023/12/23 10:45:39;;;;;;;5.20;1.20;;;;;;;;;;85039;245;3031450;-43
2023/12/23 10:48:18;;;;;;;4.40;1.20;;;;;;;;;;84972;237;3027914;-42
2023/12/23 10:50:57;;;;;;;3.50;1.00;;;;;;;;;;84996;245;3027385;-45
2023/12/23 10:53:37;;;;;;;3.40;1.00;;;;;;;;;;85025;241;3030666;-42
2023/12/23 10:56:15;;;;;;;3.80;1.10;;;;;;;;;;84969;245;3032765;-42
2023/12/23 10:58:52;;;;;;;3.50;1.10;;;;;;;;;;84909;245;3028080;-42
2023/12/23 11:01:34;;;;;;;4.60;1.20;;;;;;;;;;85030;245;3027086;-43
2023/12/23 11:04:10;;;;;;;4.30;1.00;;;;;;;;;;85008;237;3031610;-37
2023/12/23 11:06:49;;;;;;;3.70;1.10;;;;;;;;;;85034;245;3031549;-36
2023/12/23 11:09:29;;;;;;;3.70;1.10;;;;;;;;;;83796;241;3027897;-36
2023/12/23 11:12:10;;;;;;;4.40;1.30;;;;;;;;;;83678;245;3033014;-38
2023/12/23 11:14:47;;;;;;;3.70;1.10;;;;;;;;;;84936;241;3031176;-39
2023/12/23 11:17:29;;;;;;;4.20;1.10;;;;;;;;;;84966;237;3032091;-42
2023/12/23 11:20:09;;;;;;;3.70;1.30;;;;;;;;;;84976;237;3028658;-43
2023/12/23 11:22:45;;;;;;;3.10;1.10;;;;;;;;;;85020;241;3033555;-42
2023/12/23 11:25:42;;;;;;;3.40;1.00;;;;;;;;;;85011;241;3030862;-43
2023/12/23 11:28:20;;;;;;;3.30;1.00;;;;;;;;;;84995;237;3031495;-43
2023/12/23 11:30:59;;;;;;;3.70;1.20;;;;;;;;;;84984;241;3028390;-45
2023/12/23 11:33:37;;;;;;;4.70;1.20;;;;;;;;;;84994;245;3027526;-44
2023/12/23 11:36:14;;;;;;;3.10;1.30;;;;;;;;;;84926;241;3031229;-42
2023/12/23 11:38:51;;;;;;;3.30;1.20;;;;;;;;;;84942;245;3031605;-44
2023/12/23 11:41:30;;;;;;;3.60;1.10;;;;;;;;;;84613;245;3028895;-42
2023/12/23 11:44:12;;;;;;;4.60;1.50;;;;;;;;;;83719;241;3027604;-36
2023/12/23 11:46:49;;;;;;;3.60;1.20;;;;;;;;;;84254;241;3031467;-36
2023/12/23 11:49:39;;;;;;;3.30;1.20;;;;;;;;;;83679;245;3031264;-36
2023/12/23 11:52:20;;;;;;;3.40;1.20;;;;;;;;;;83661;237;3028579;-36
2023/12/23 11:54:57;;;;;;;3.00;1.10;;;;;;;;;;85004;245;3027863;-39
2023/12/23 11:57:34;;;;;;;3.20;1.10;;;;;;;;;;84989;237;3031087;-42
2023/12/23 12:00:13;;;;;;;3.60;1.20;;;;;;;;;;84893;241;3032233;-43
2023/12/23 12:02:49;;;;;;;3.80;1.20;;;;;;;;;;84992;237;3028610;-44
2023/12/23 12:05:27;;;;;;;3.60;1.20;;;;;;;;;;85009;245;3027489;-43
2023/12/23 12:08:03;;;;;;;3.70;1.40;;;;;;;;;;85038;237;3030573;-43
2023/12/23 12:10:40;;;;;;;3.90;1.10;;;;;;;;;;84955;241;3031988;-42
2023/12/23 12:13:17;;;;;;;3.60;1.30;;;;;;;;;;84918;245;3028755;-44
2023/12/23 12:15:53;;;;;;;3.60;1.40;;;;;;;;;;85067;241;3027511;-42
2023/12/23 12:18:30;;;;;;;3.40;1.50;;;;;;;;;;84940;242;3031426;-44
2023/12/23 12:21:07;;;;;;;3.80;1.30;;;;;;;;;;85064;245;3031218;-40
2023/12/23 12:23:43;;;;;;;3.00;1.00;;;;;;;;;;84948;241;3028493;-39
2023/12/23 12:26:22;;;;;;;3.20;1.20;;;;;;;;;;84448;245;3027206;-39
2023/12/23 12:29:00;;;;;;;3.50;1.00;;;;;;;;;;83735;237;3030765;-39
2023/12/23 12:31:40;;;;;;;3.20;1.20;;;;;;;;;;83672;245;3031514;-39
2023/12/23 12:34:21;;;;;;;3.40;1.20;;;;;;;;;;83699;234;3035978;-38
2023/12/23 12:37:02;;;;;;;3.50;1.30;;;;;;;;;;84031;245;3027613;-39
2023/12/23 12:39:43;;;;;;;3.80;1.20;;;;;;;;;;83690;237;3030836;-38
2023/12/23 12:42:20;;;;;;;3.40;1.10;;;;;;;;;;83684;241;3032152;-38
2023/12/23 12:45:05;;;;;;;3.30;1.20;;;;;;;;;;83732;233;3028513;-38
2023/12/23 12:47:44;;;;;;;3.90;1.40;;;;;;;;;;83698;241;3028515;-38
2023/12/23 12:50:22;;;;;;;3.70;1.30;;;;;;;;;;83710;237;3031705;-39
2023/12/23 12:53:01;;;;;;;3.50;1.20;;;;;;;;;;83638;234;3032693;-38
2023/12/23 12:55:41;;;;;;;3.00;1.10;;;;;;;;;;83685;245;3028660;-39
2023/12/23 12:58:18;;;;;;;3.50;1.20;;;;;;;;;;84938;248;3028355;-39
2023/12/23 13:00:54;;;;;;;3.20;1.10;;;;;;;;;;83848;241;3031046;-37
2023/12/23 13:03:34;;;;;;;3.80;1.10;;;;;;;;;;83671;241;3031739;-39
2023/12/23 13:06:11;;;;;;;2.80;1.10;;;;;;;;;;83685;238;3028250;-40
2023/12/23 13:08:47;;;;;;;3.40;1.20;;;;;;;;;;85001;241;3027987;-39
2023/12/23 13:11:24;;;;;;;3.40;1.20;;;;;;;;;;83930;241;3031409;-39
2023/12/23 13:14:00;;;;;;;3.30;1.30;;;;;;;;;;84976;245;3031491;-40
2023/12/23 13:16:37;;;;;;;3.10;1.10;;;;;;;;;;84990;241;3028687;-39
2023/12/23 13:19:13;;;;;;;3.30;1.10;;;;;;;;;;84936;241;3027158;-40
2023/12/23 13:21:50;;;;;;;3.50;1.30;;;;;;;;;;84941;241;3031454;-39
2023/12/23 13:24:27;;;;;;;3.60;1.30;;;;;;;;;;84962;241;3031284;-39
2023/12/23 13:27:03;;;;;;;3.20;1.20;;;;;;;;;;84991;241;3028504;-39
2023/12/23 13:29:40;;;;;;;4.10;1.30;;;;;;;;;;84583;241;3027290;-39
2023/12/23 13:32:18;;;;;;;3.50;1.30;;;;;;;;;;83757;237;3030843;-39
2023/12/23 13:34:57;;;;;;;3.30;1.20;;;;;;;;;;83693;241;3032835;-36
2023/12/23 13:37:34;;;;;;;3.60;1.40;;;;;;;;;;83742;241;3029601;-36
2023/12/23 13:40:16;;;;;;;3.80;1.20;;;;;;;;;;83707;245;3027117;-36
2023/12/23 13:42:54;;;;;;;3.40;1.00;;;;;;;;;;83875;245;3029781;-36
2023/12/23 13:45:33;;;;;;;3.70;1.30;;;;;;;;;;83690;245;3032763;-36
2023/12/23 13:48:15;;;;;;;3.20;1.30;;;;;;;;;;83717;237;3027978;-36
2023/12/23 13:50:53;;;;;;;3.60;1.20;;;;;;;;;;83750;229;3027813;-35
2023/12/23 13:53:35;;;;;;;3.60;1.20;;;;;;;;;;83691;245;3030816;-36
2023/12/23 13:56:18;;;;;;;3.50;1.40;;;;;;;;;;83722;241;3037588;-36
2023/12/23 13:58:57;;;;;;;3.60;1.20;;;;;;;;;;83668;245;3027887;-36
2023/12/23 14:01:39;;;;;;;3.60;1.30;;;;;;;;;;83721;241;3027217;-35
2023/12/23 14:04:19;;;;;;;3.60;1.30;;;;;;;;;;83701;237;3031184;-35
2023/12/23 14:06:56;;;;;;;3.00;1.20;;;;;;;;;;83712;245;3031643;-36
2023/12/23 14:09:34;;;;;;;3.70;1.30;;;;;;;;;;83702;237;3028923;-36
2023/12/23 14:12:12;;;;;;;4.00;1.40;;;;;;;;;;84518;241;3027783;-36
2023/12/23 14:14:50;;;;;;;3.70;1.40;;;;;;;;;;83953;237;3031721;-36
2023/12/23 14:17:31;;;;;;;3.70;1.30;;;;;;;;;;83712;245;3031385;-36
2023/12/23 14:20:11;;;;;;;3.50;1.20;;;;;;;;;;83699;234;3028075;-36
2023/12/23 14:22:49;;;;;;;4.10;1.50;;;;;;;;;;83801;245;3027608;-35
2023/12/23 14:25:27;;;;;;;3.30;1.20;;;;;;;;;;83697;245;3030888;-35
2023/12/23 14:28:05;;;;;;;3.50;1.20;;;;;;;;;;83706;245;3032684;-36
2023/12/23 14:30:45;;;;;;;3.40;1.30;;;;;;;;;;83840;237;3027908;-36
2023/12/23 14:33:23;;;;;;;3.90;1.50;;;;;;;;;;84188;245;3027337;-36
2023/12/23 14:36:02;;;;;;;3.80;1.30;;;;;;;;;;83677;242;3030994;-36
2023/12/23 14:38:43;;;;;;;3.20;1.20;;;;;;;;;;83706;237;3031373;-36
2023/12/23 14:41:25;;;;;;;3.10;1.10;;;;;;;;;;83694;237;3028833;-36
2023/12/23 14:44:05;;;;;;;3.40;1.30;;;;;;;;;;83747;241;3027695;-36
2023/12/23 14:46:43;;;;;;;2.80;1.00;;;;;;;;;;84304;241;3030798;-36
2023/12/23 14:49:24;;;;;;;3.80;1.20;;;;;;;;;;83707;245;3031664;-36
2023/12/23 14:52:02;;;;;;;3.80;1.20;;;;;;;;;;83719;245;3029045;-36
2023/12/23 14:54:45;;;;;;;3.10;1.10;;;;;;;;;;83729;241;3027658;-36
2023/12/23 14:57:26;;;;;;;4.10;1.20;;;;;;;;;;83683;242;3036911;-36
2023/12/23 15:00:09;;;;;;;3.50;1.20;;;;;;;;;;83695;245;3031332;-35
2023/12/23 15:02:47;;;;;;;3.40;1.10;;;;;;;;;;84358;241;3028162;-36
2023/12/23 15:05:24;;;;;;;3.20;1.10;;;;;;;;;;83680;242;3027559;-36
2023/12/23 15:08:02;;;;;;;3.20;1.10;;;;;;;;;;83712;237;3032106;-35
2023/12/23 15:10:44;;;;;;;3.80;1.40;;;;;;;;;;83733;242;3031743;-35
2023/12/23 15:13:23;;;;;;;3.80;1.20;;;;;;;;;;83689;237;3028550;-35
2023/12/23 15:16:01;;;;;;;3.70;1.30;;;;;;;;;;83671;245;3027106;-35
2023/12/23 15:18:39;;;;;;;3.30;1.10;;;;;;;;;;83746;242;3030998;-35
2023/12/23 15:21:16;;;;;;;3.50;1.20;;;;;;;;;;83700;242;3032065;-35
2023/12/23 15:23:55;;;;;;;3.00;1.10;;;;;;;;;;83710;237;3027996;-35
2023/12/23 15:26:34;;;;;;;3.10;1.10;;;;;;;;;;83697;241;3027678;-35
2023/12/23 15:29:15;;;;;;;3.40;1.10;;;;;;;;;;83710;237;3030734;-35
2023/12/23 15:31:56;;;;;;;3.30;1.10;;;;;;;;;;83691;245;3031881;-36
2023/12/23 15:34:33;;;;;;;3.20;1.20;;;;;;;;;;83725;234;3028148;-35
2023/12/23 15:37:11;;;;;;;3.10;1.00;;;;;;;;;;83663;237;3027876;-35
2023/12/23 15:39:47;;;;;;;3.60;1.20;;;;;;;;;;85050;237;3030800;-36
2023/12/23 15:42:24;;;;;;;2.70;1.10;;;;;;;;;;84922;245;3032027;-36
2023/12/23 15:45:00;;;;;;;3.10;1.10;;;;;;;;;;84999;237;3028787;-37
2023/12/23 15:47:38;;;;;;;3.10;1.10;;;;;;;;;;83781;234;3027630;-36
2023/12/23 15:50:21;;;;;;;3.70;1.10;;;;;;;;;;83707;241;3031038;-35
2023/12/23 15:52:58;;;;;;;3.20;1.10;;;;;;;;;;83676;245;3032250;-35
2023/12/23 15:55:40;;;;;;;3.60;1.20;;;;;;;;;;83697;241;3029494;-36
2023/12/23 15:58:18;;;;;;;3.50;1.30;;;;;;;;;;83688;245;3027468;-38
2023/12/23 16:00:55;;;;;;;3.20;1.20;;;;;;;;;;83693;242;3031051;-38
2023/12/23 16:03:35;;;;;;;3.30;1.20;;;;;;;;;;83665;245;3032022;-38
2023/12/23 16:06:21;;;;;;;4.00;1.30;;;;;;;;;;83714;237;3028929;-38
2023/12/23 16:08:57;;;;;;;3.10;1.00;;;;;;;;;;83702;241;3028509;-38
2023/12/23 16:11:36;;;;;;;3.10;1.30;;;;;;;;;;83717;237;3031388;-39
2023/12/23 16:14:15;;;;;;;3.50;1.20;;;;;;;;;;83680;245;3031509;-38
2023/12/23 16:16:58;;;;;;;3.30;1.10;;;;;;;;;;83691;229;3028755;-38
2023/12/23 16:19:37;;;;;;;3.80;1.40;;;;;;;;;;83691;238;3034274;-39
2023/12/23 16:22:13;;;;;;;3.30;1.20;;;;;;;;;;84997;246;3032039;-38